sensor_id;sensor_type;location;lat;lon;timestamp;pressure;altitude;pressure_sealevel;temperature;humidity
45255;BME280;30989;52.078;21.014;2023-07-09T00:00:45;168773.91;;;19.07;59.66
45255;BME280;30989;52.078;21.014;2023-07-09T00:03:12;168759.09;;;19.01;60.40
45255;BME280;30989;52.078;21.014;2023-07-09T00:05:38;168744.31;;;18.95;59.93
45255;BME280;30989;52.078;21.014;2023-07-09T00:08:04;168747.00;;;18.96;60.08
45255;BME280;30989;52.078;21.014;2023-07-09T00:10:29;168730.84;;;18.90;60.43
45255;BME280;30989;52.078;21.014;2023-07-09T00:12:55;168728.16;;;18.89;60.56
45255;BME280;30989;52.078;21.014;2023-07-09T00:15:21;168714.69;;;18.84;61.08
45255;BME280;30989;52.078;21.014;2023-07-09T00:17:47;168710.66;;;18.83;61.07
45255;BME280;30989;52.078;21.014;2023-07-09T00:20:16;168709.31;;;18.82;62.01
45255;BME280;30989;52.078;21.014;2023-07-09T00:22:43;168693.16;;;18.76;61.88
45255;BME280;30989;52.078;21.014;2023-07-09T00:25:21;168695.84;;;18.77;61.84
45255;BME280;30989;52.078;21.014;2023-07-09T00:27:46;168685.09;;;18.73;62.06
45255;BME280;30989;52.078;21.014;2023-07-09T00:30:20;168685.09;;;18.73;62.15
45255;BME280;30989;52.078;21.014;2023-07-09T00:32:50;168682.41;;;18.72;62.60
45255;BME280;30989;52.078;21.014;2023-07-09T00:35:17;168679.69;;;18.71;62.80
45255;BME280;30989;52.078;21.014;2023-07-09T00:37:45;168663.56;;;18.65;63.10
45255;BME280;30989;52.078;21.014;2023-07-09T00:40:22;168652.78;;;18.61;63.33
45255;BME280;30989;52.078;21.014;2023-07-09T00:42:50;168662.22;;;18.64;63.30
45255;BME280;30989;52.078;21.014;2023-07-09T00:45:23;168660.84;;;18.64;63.13
45255;BME280;30989;52.078;21.014;2023-07-09T00:53:01;168641.97;;;18.57;63.99
45255;BME280;30989;52.078;21.014;2023-07-09T00:55:31;168639.28;;;18.56;63.93
45255;BME280;30989;52.078;21.014;2023-07-09T00:58:03;168635.25;;;18.54;64.05
45255;BME280;30989;52.078;21.014;2023-07-09T01:00:40;168623.13;;;18.50;64.04
45255;BME280;30989;52.078;21.014;2023-07-09T01:03:13;168632.56;;;18.53;64.73
45255;BME280;30989;52.078;21.014;2023-07-09T01:05:41;168617.75;;;18.48;64.72
45255;BME280;30989;52.078;21.014;2023-07-09T01:08:09;168596.22;;;18.40;64.92
45255;BME280;30989;52.078;21.014;2023-07-09T01:10:35;168611.03;;;18.45;65.33
45255;BME280;30989;52.078;21.014;2023-07-09T01:13:03;168609.69;;;18.45;64.94
45255;BME280;30989;52.078;21.014;2023-07-09T01:15:29;168598.91;;;18.41;65.12
45255;BME280;30989;52.078;21.014;2023-07-09T01:17:55;168596.22;;;18.40;65.44
45255;BME280;30989;52.078;21.014;2023-07-09T01:20:21;168598.91;;;18.41;66.07
45255;BME280;30989;52.078;21.014;2023-07-09T01:22:51;168585.44;;;18.35;66.12
45255;BME280;30989;52.078;21.014;2023-07-09T01:25:20;168576.03;;;18.32;65.89
45255;BME280;30989;52.078;21.014;2023-07-09T01:27:47;168563.94;;;18.27;66.09
45255;BME280;30989;52.078;21.014;2023-07-09T01:30:23;168551.81;;;18.23;66.27
45255;BME280;30989;52.078;21.014;2023-07-09T01:32:50;168553.16;;;18.23;66.89
45255;BME280;30989;52.078;21.014;2023-07-09T01:35:18;168545.09;;;18.20;66.95
45255;BME280;30989;52.078;21.014;2023-07-09T01:37:46;168523.56;;;18.12;66.74
45255;BME280;30989;52.078;21.014;2023-07-09T01:40:14;168531.63;;;18.15;66.80
45255;BME280;30989;52.078;21.014;2023-07-09T01:42:40;168524.91;;;18.13;67.13
45255;BME280;30989;52.078;21.014;2023-07-09T01:45:09;168520.88;;;18.11;66.79
45255;BME280;30989;52.078;21.014;2023-07-09T01:47:38;168512.81;;;18.08;67.21
45255;BME280;30989;52.078;21.014;2023-07-09T01:50:06;168512.81;;;18.08;67.32
45255;BME280;30989;52.078;21.014;2023-07-09T01:52:37;168506.06;;;18.06;67.45
45255;BME280;30989;52.078;21.014;2023-07-09T01:55:04;168503.38;;;18.04;67.86
45255;BME280;30989;52.078;21.014;2023-07-09T01:57:29;168493.97;;;18.01;68.47
45255;BME280;30989;52.078;21.014;2023-07-09T02:00:03;168489.94;;;17.99;68.64
45255;BME280;30989;52.078;21.014;2023-07-09T02:02:40;168477.81;;;17.95;68.27
45255;BME280;30989;52.078;21.014;2023-07-09T02:05:10;168477.81;;;17.95;68.68
45255;BME280;30989;52.078;21.014;2023-07-09T02:07:36;168469.75;;;17.92;68.78
45255;BME280;30989;52.078;21.014;2023-07-09T02:10:03;168465.72;;;17.90;68.33
45255;BME280;30989;52.078;21.014;2023-07-09T02:12:31;168454.97;;;17.86;68.86
45255;BME280;30989;52.078;21.014;2023-07-09T02:14:57;168446.88;;;17.83;69.48
45255;BME280;30989;52.078;21.014;2023-07-09T02:17:23;168438.81;;;17.80;69.29
45255;BME280;30989;52.078;21.014;2023-07-09T02:19:50;168434.78;;;17.79;69.38
45255;BME280;30989;52.078;21.014;2023-07-09T02:22:16;168432.09;;;17.78;69.43
45255;BME280;30989;52.078;21.014;2023-07-09T02:24:44;168422.69;;;17.74;69.32
45255;BME280;30989;52.078;21.014;2023-07-09T02:27:11;168418.63;;;17.73;69.98
45255;BME280;30989;52.078;21.014;2023-07-09T02:29:37;168415.94;;;17.71;69.93
45255;BME280;30989;52.078;21.014;2023-07-09T02:32:04;168402.50;;;17.66;70.43
45255;BME280;30989;52.078;21.014;2023-07-09T02:34:30;168399.75;;;17.65;70.64
45255;BME280;30989;52.078;21.014;2023-07-09T02:36:57;168378.25;;;17.57;70.66
45255;BME280;30989;52.078;21.014;2023-07-09T02:39:24;168374.19;;;17.56;70.47
45255;BME280;30989;52.078;21.014;2023-07-09T02:41:50;168378.25;;;17.57;70.92
45255;BME280;30989;52.078;21.014;2023-07-09T02:44:16;168360.75;;;17.51;70.85
45255;BME280;30989;52.078;21.014;2023-07-09T02:46:42;168358.06;;;17.50;71.29
45255;BME280;30989;52.078;21.014;2023-07-09T02:49:09;168351.34;;;17.47;71.18
45255;BME280;30989;52.078;21.014;2023-07-09T02:51:36;168359.41;;;17.50;71.23
45255;BME280;30989;52.078;21.014;2023-07-09T02:54:02;168358.06;;;17.50;71.97
45255;BME280;30989;52.078;21.014;2023-07-09T02:56:29;168347.31;;;17.46;72.22
45255;BME280;30989;52.078;21.014;2023-07-09T02:58:54;168339.22;;;17.43;71.87
45255;BME280;30989;52.078;21.014;2023-07-09T03:01:20;168324.44;;;17.37;72.17
45255;BME280;30989;52.078;21.014;2023-07-09T03:03:55;168321.75;;;17.36;72.44
45255;BME280;30989;52.078;21.014;2023-07-09T03:06:22;168313.69;;;17.33;73.53
45255;BME280;30989;52.078;21.014;2023-07-09T03:08:48;168321.75;;;17.36;74.16
45255;BME280;30989;52.078;21.014;2023-07-09T03:11:15;168312.34;;;17.32;73.38
45255;BME280;30989;52.078;21.014;2023-07-09T03:13:43;168302.94;;;17.29;73.32
45255;BME280;30989;52.078;21.014;2023-07-09T03:16:12;168304.28;;;17.29;73.93
45255;BME280;30989;52.078;21.014;2023-07-09T03:18:37;168300.25;;;17.28;73.58
45255;BME280;30989;52.078;21.014;2023-07-09T03:21:03;168292.16;;;17.25;73.85
45255;BME280;30989;52.078;21.014;2023-07-09T03:23:29;168305.63;;;17.30;73.53
45255;BME280;30989;52.078;21.014;2023-07-09T03:25:55;168313.69;;;17.33;73.51
45255;BME280;30989;52.078;21.014;2023-07-09T03:28:22;168313.69;;;17.33;74.52
45255;BME280;30989;52.078;21.014;2023-07-09T03:30:48;168313.69;;;17.33;73.79
45255;BME280;30989;52.078;21.014;2023-07-09T03:33:15;168312.34;;;17.32;74.13
45255;BME280;30989;52.078;21.014;2023-07-09T03:35:42;168308.31;;;17.31;73.99
45255;BME280;30989;52.078;21.014;2023-07-09T03:38:09;168316.38;;;17.34;73.99
45255;BME280;30989;52.078;21.014;2023-07-09T03:40:35;168316.38;;;17.34;74.96
45255;BME280;30989;52.078;21.014;2023-07-09T03:43:02;168317.72;;;17.34;74.55
45255;BME280;30989;52.078;21.014;2023-07-09T03:45:27;168327.13;;;17.38;75.25
45255;BME280;30989;52.078;21.014;2023-07-09T03:47:53;168327.13;;;17.38;74.37
45255;BME280;30989;52.078;21.014;2023-07-09T03:50:18;168337.91;;;17.42;74.71
45255;BME280;30989;52.078;21.014;2023-07-09T03:52:44;168348.66;;;17.46;74.76
45255;BME280;30989;52.078;21.014;2023-07-09T03:55:10;168343.28;;;17.44;74.76
45255;BME280;30989;52.078;21.014;2023-07-09T03:57:35;168370.16;;;17.54;74.56
45255;BME280;30989;52.078;21.014;2023-07-09T04:00:03;168380.94;;;17.58;74.20
45255;BME280;30989;52.078;21.014;2023-07-09T04:02:41;168383.63;;;17.59;74.27
45255;BME280;30989;52.078;21.014;2023-07-09T04:05:09;168387.66;;;17.61;74.53
45255;BME280;30989;52.078;21.014;2023-07-09T04:07:36;168397.06;;;17.64;74.23
45255;BME280;30989;52.078;21.014;2023-07-09T04:10:01;168401.16;;;17.66;74.20
45255;BME280;30989;52.078;21.014;2023-07-09T04:12:30;168415.94;;;17.71;74.14
45255;BME280;30989;52.078;21.014;2023-07-09T04:14:56;168425.38;;;17.75;73.71
45255;BME280;30989;52.078;21.014;2023-07-09T04:17:22;168442.84;;;17.82;73.51
45255;BME280;30989;52.078;21.014;2023-07-09T04:19:54;168457.66;;;17.87;73.98
45255;BME280;30989;52.078;21.014;2023-07-09T04:22:19;168469.75;;;17.92;73.41
45255;BME280;30989;52.078;21.014;2023-07-09T04:24:45;168488.59;;;17.99;73.48
45255;BME280;30989;52.078;21.014;2023-07-09T04:27:11;168477.81;;;17.95;73.15
45255;BME280;30989;52.078;21.014;2023-07-09T04:29:36;168508.75;;;18.07;73.17
45255;BME280;30989;52.078;21.014;2023-07-09T04:32:05;168523.56;;;18.12;73.03
45255;BME280;30989;52.078;21.014;2023-07-09T04:34:32;168522.22;;;18.12;72.78
45255;BME280;30989;52.078;21.014;2023-07-09T04:37:00;168527.59;;;18.14;72.77
45255;BME280;30989;52.078;21.014;2023-07-09T04:39:26;168514.16;;;18.09;72.63
45255;BME280;30989;52.078;21.014;2023-07-09T04:41:51;168542.41;;;18.19;72.72
45255;BME280;30989;52.078;21.014;2023-07-09T04:44:17;168553.16;;;18.23;72.46
45255;BME280;30989;52.078;21.014;2023-07-09T04:46:42;168561.25;;;18.26;72.66
45255;BME280;30989;52.078;21.014;2023-07-09T04:49:08;168586.81;;;18.36;72.28
45255;BME280;30989;52.078;21.014;2023-07-09T04:51:34;168598.91;;;18.41;72.31
45255;BME280;30989;52.078;21.014;2023-07-09T04:53:59;168606.97;;;18.44;71.88
45255;BME280;30989;52.078;21.014;2023-07-09T04:56:29;168611.03;;;18.45;71.96
45255;BME280;30989;52.078;21.014;2023-07-09T04:58:55;168623.13;;;18.50;71.87
45255;BME280;30989;52.078;21.014;2023-07-09T05:01:21;168636.59;;;18.55;72.00
45255;BME280;30989;52.078;21.014;2023-07-09T05:03:46;168656.81;;;18.62;71.67
45255;BME280;30989;52.078;21.014;2023-07-09T05:06:12;168677.00;;;18.70;71.47
45255;BME280;30989;52.078;21.014;2023-07-09T05:08:37;168685.09;;;18.73;71.45
45255;BME280;30989;52.078;21.014;2023-07-09T05:11:02;168728.16;;;18.89;71.20
45255;BME280;30989;52.078;21.014;2023-07-09T05:13:28;168734.88;;;18.92;71.11
45255;BME280;30989;52.078;21.014;2023-07-09T05:15:53;168752.38;;;18.98;70.97
45255;BME280;30989;52.078;21.014;2023-07-09T05:18:19;168760.47;;;19.02;70.50
45255;BME280;30989;52.078;21.014;2023-07-09T05:20:46;168784.69;;;19.11;70.34
45255;BME280;30989;52.078;21.014;2023-07-09T05:23:12;168796.78;;;19.15;69.91
45255;BME280;30989;52.078;21.014;2023-07-09T05:25:38;168812.94;;;19.21;69.89
45255;BME280;30989;52.078;21.014;2023-07-09T05:28:04;168819.69;;;19.24;69.70
45255;BME280;30989;52.078;21.014;2023-07-09T05:30:31;168842.56;;;19.32;69.62
45255;BME280;30989;52.078;21.014;2023-07-09T05:32:56;168854.69;;;19.37;69.36
45255;BME280;30989;52.078;21.014;2023-07-09T05:35:26;168887.00;;;19.49;69.41
45255;BME280;30989;52.078;21.014;2023-07-09T05:37:53;168887.00;;;19.49;68.96
45255;BME280;30989;52.078;21.014;2023-07-09T05:40:18;168935.50;;;19.68;68.43
45255;BME280;30989;52.078;21.014;2023-07-09T05:42:44;168950.31;;;19.73;68.22
45255;BME280;30989;52.078;21.014;2023-07-09T05:45:10;168962.44;;;19.78;67.80
45255;BME280;30989;52.078;21.014;2023-07-09T05:47:35;168971.88;;;19.81;67.37
45255;BME280;30989;52.078;21.014;2023-07-09T05:50:01;168981.31;;;19.85;67.73
45255;BME280;30989;52.078;21.014;2023-07-09T05:52:28;169000.16;;;19.92;66.79
45255;BME280;30989;52.078;21.014;2023-07-09T05:54:54;169000.16;;;19.92;66.50
45255;BME280;30989;52.078;21.014;2023-07-09T05:57:20;169019.00;;;19.99;66.38
45255;BME280;30989;52.078;21.014;2023-07-09T05:59:46;169027.09;;;20.02;65.78
45255;BME280;30989;52.078;21.014;2023-07-09T06:02:13;169049.97;;;20.11;65.68
45255;BME280;30989;52.078;21.014;2023-07-09T06:04:39;169062.09;;;20.15;65.29
45255;BME280;30989;52.078;21.014;2023-07-09T06:07:05;169083.66;;;20.23;64.81
45255;BME280;30989;52.078;21.014;2023-07-09T06:09:30;169103.84;;;20.31;64.58
45255;BME280;30989;52.078;21.014;2023-07-09T06:11:57;169118.69;;;20.37;64.67
45255;BME280;30989;52.078;21.014;2023-07-09T06:14:23;169142.97;;;20.46;63.93
45255;BME280;30989;52.078;21.014;2023-07-09T06:16:49;169145.66;;;20.47;64.05
45255;BME280;30989;52.078;21.014;2023-07-09T06:19:14;169173.94;;;20.57;63.74
45255;BME280;30989;52.078;21.014;2023-07-09T06:21:40;169199.53;;;20.67;63.61
45255;BME280;30989;52.078;21.014;2023-07-09T06:24:06;169219.75;;;20.75;62.43
45255;BME280;30989;52.078;21.014;2023-07-09T06:26:32;169222.44;;;20.76;63.00
45255;BME280;30989;52.078;21.014;2023-07-09T06:28:58;169240.03;;;20.82;62.64
45255;BME280;30989;52.078;21.014;2023-07-09T06:31:23;169258.88;;;20.89;62.18
45255;BME280;30989;52.078;21.014;2023-07-09T06:33:50;169254.84;;;20.88;61.92
45255;BME280;30989;52.078;21.014;2023-07-09T06:36:16;169265.63;;;20.92;62.37
45255;BME280;30989;52.078;21.014;2023-07-09T06:38:42;169288.53;;;21.01;61.92
45255;BME280;30989;52.078;21.014;2023-07-09T06:41:07;169320.88;;;21.13;61.14
45255;BME280;30989;52.078;21.014;2023-07-09T06:43:34;169326.25;;;21.15;61.09
45255;BME280;30989;52.078;21.014;2023-07-09T06:46:00;169345.16;;;21.22;60.25
45255;BME280;30989;52.078;21.014;2023-07-09T06:48:27;169364.03;;;21.29;59.25
45255;BME280;30989;52.078;21.014;2023-07-09T06:50:54;169353.25;;;21.25;59.98
45255;BME280;30989;52.078;21.014;2023-07-09T06:53:21;169372.13;;;21.32;59.76
45255;BME280;30989;52.078;21.014;2023-07-09T06:55:47;169396.38;;;21.41;59.76
45255;BME280;30989;52.078;21.014;2023-07-09T06:58:15;169403.13;;;21.44;59.38
45255;BME280;30989;52.078;21.014;2023-07-09T07:00:41;169434.13;;;21.55;59.62
45255;BME280;30989;52.078;21.014;2023-07-09T07:03:06;169454.34;;;21.63;59.17
45255;BME280;30989;52.078;21.014;2023-07-09T07:05:32;169465.13;;;21.67;58.75
45255;BME280;30989;52.078;21.014;2023-07-09T07:07:59;169496.13;;;21.79;58.66
45255;BME280;30989;52.078;21.014;2023-07-09T07:10:24;169516.34;;;21.86;58.12
45255;BME280;30989;52.078;21.014;2023-07-09T07:12:52;169528.47;;;21.91;58.37
45255;BME280;30989;52.078;21.014;2023-07-09T07:15:18;169546.00;;;21.98;57.93
45255;BME280;30989;52.078;21.014;2023-07-09T07:17:44;169550.03;;;21.99;57.20
45255;BME280;30989;52.078;21.014;2023-07-09T07:20:12;169551.38;;;22.00;57.00
45255;BME280;30989;52.078;21.014;2023-07-09T07:22:38;169590.53;;;22.14;56.87
45255;BME280;30989;52.078;21.014;2023-07-09T07:25:04;169614.81;;;22.24;56.83
45255;BME280;30989;52.078;21.014;2023-07-09T07:27:30;169629.63;;;22.29;56.07
45255;BME280;30989;52.078;21.014;2023-07-09T07:29:56;169609.41;;;22.22;55.51
45255;BME280;30989;52.078;21.014;2023-07-09T07:32:21;169606.72;;;22.21;54.81
45255;BME280;30989;52.078;21.014;2023-07-09T07:34:47;169585.16;;;22.12;55.41
45255;BME280;30989;52.078;21.014;2023-07-09T07:37:13;169597.28;;;22.17;55.88
45255;BME280;30989;52.078;21.014;2023-07-09T07:39:39;169629.63;;;22.29;55.80
45255;BME280;30989;52.078;21.014;2023-07-09T07:42:05;169672.78;;;22.45;54.74
45255;BME280;30989;52.078;21.014;2023-07-09T07:44:30;169698.41;;;22.55;55.10
45255;BME280;30989;52.078;21.014;2023-07-09T07:46:56;169728.06;;;22.66;54.95
45255;BME280;30989;52.078;21.014;2023-07-09T07:49:22;169759.09;;;22.78;54.57
45255;BME280;30989;52.078;21.014;2023-07-09T07:51:47;169768.59;;;22.81;54.49
45255;BME280;30989;52.078;21.014;2023-07-09T07:54:13;169803.66;;;22.95;55.11
45255;BME280;30989;52.078;21.014;2023-07-09T07:56:39;169819.84;;;23.01;54.17
45255;BME280;30989;52.078;21.014;2023-07-09T07:59:04;169830.63;;;23.05;52.97
45255;BME280;30989;52.078;21.014;2023-07-09T08:01:30;169827.94;;;23.04;52.55
45255;BME280;30989;52.078;21.014;2023-07-09T08:03:55;169841.41;;;23.09;52.78
45255;BME280;30989;52.078;21.014;2023-07-09T08:06:21;169868.41;;;23.19;52.59
45255;BME280;30989;52.078;21.014;2023-07-09T08:08:47;169889.97;;;23.27;52.97
45255;BME280;30989;52.078;21.014;2023-07-09T08:11:14;169919.66;;;23.38;51.92
45255;BME280;30989;52.078;21.014;2023-07-09T08:13:39;169896.72;;;23.30;52.14
45255;BME280;30989;52.078;21.014;2023-07-09T08:16:06;169946.63;;;23.48;51.44
45255;BME280;30989;52.078;21.014;2023-07-09T08:18:31;169960.13;;;23.54;52.09
45255;BME280;30989;52.078;21.014;2023-07-09T08:21:01;170007.41;;;23.71;51.81
45255;BME280;30989;52.078;21.014;2023-07-09T08:23:26;170024.94;;;23.78;51.06
45255;BME280;30989;52.078;21.014;2023-07-09T08:25:56;170060.03;;;23.91;50.45
45255;BME280;30989;52.078;21.014;2023-07-09T08:28:21;170072.16;;;23.96;50.26
45255;BME280;30989;52.078;21.014;2023-07-09T08:30:47;170087.00;;;24.01;49.70
45255;BME280;30989;52.078;21.014;2023-07-09T08:33:13;170073.53;;;23.96;49.72
45255;BME280;30989;52.078;21.014;2023-07-09T08:35:42;170096.47;;;24.05;50.10
45255;BME280;30989;52.078;21.014;2023-07-09T08:38:07;170130.19;;;24.18;49.54
45255;BME280;30989;52.078;21.014;2023-07-09T08:40:33;170135.59;;;24.20;48.59
45255;BME280;30989;52.078;21.014;2023-07-09T08:46:53;170142.34;;;24.22;46.74
45255;BME280;30989;52.078;21.014;2023-07-09T08:48:56;170154.53;;;24.27;47.66
45255;BME280;30989;52.078;21.014;2023-07-09T08:51:32;170189.63;;;24.40;46.41
45255;BME280;30989;52.078;21.014;2023-07-09T08:54:00;170200.44;;;24.44;44.12
45255;BME280;30989;52.078;21.014;2023-07-09T08:56:27;170196.38;;;24.42;43.60
45255;BME280;30989;52.078;21.014;2023-07-09T08:58:55;170188.28;;;24.39;43.78
45255;BME280;30989;52.078;21.014;2023-07-09T09:01:50;170191.00;;;24.40;43.46
45255;BME280;30989;52.078;21.014;2023-07-09T09:04:23;170199.09;;;24.43;44.78
45255;BME280;30989;52.078;21.014;2023-07-09T09:06:59;170258.47;;;24.66;45.20
45255;BME280;30989;52.078;21.014;2023-07-09T09:09:28;170321.94;;;24.90;43.80
45255;BME280;30989;52.078;21.014;2023-07-09T09:12:04;170347.63;;;24.99;41.46
45255;BME280;30989;52.078;21.014;2023-07-09T09:14:40;170332.72;;;24.94;40.42
45255;BME280;30989;52.078;21.014;2023-07-09T09:17:15;170312.47;;;24.86;40.17
45255;BME280;30989;52.078;21.014;2023-07-09T09:22:14;170344.94;;;24.98;39.75
45255;BME280;30989;52.078;21.014;2023-07-09T09:24:57;170367.88;;;25.07;40.95
45255;BME280;30989;52.078;21.014;2023-07-09T09:27:23;170421.88;;;25.27;40.63
45255;BME280;30989;52.078;21.014;2023-07-09T09:29:48;170430.00;;;25.30;40.14
45255;BME280;30989;52.078;21.014;2023-07-09T09:32:22;170447.53;;;25.37;39.07
45255;BME280;30989;52.078;21.014;2023-07-09T09:34:50;170454.28;;;25.39;38.97
45255;BME280;30989;52.078;21.014;2023-07-09T09:37:25;170465.09;;;25.44;38.58
45255;BME280;30989;52.078;21.014;2023-07-09T09:39:50;170459.69;;;25.42;37.46
45255;BME280;30989;52.078;21.014;2023-07-09T09:42:16;170463.75;;;25.43;38.78
45255;BME280;30989;52.078;21.014;2023-07-09T09:44:45;170481.31;;;25.50;37.81
45255;BME280;30989;52.078;21.014;2023-07-09T09:47:12;170521.88;;;25.65;38.02
45255;BME280;30989;52.078;21.014;2023-07-09T09:49:42;170569.16;;;25.83;38.90
45255;BME280;30989;52.078;21.014;2023-07-09T09:52:17;170623.22;;;26.03;38.80
45255;BME280;30989;52.078;21.014;2023-07-09T09:54:51;170640.78;;;26.10;38.49
45255;BME280;30989;52.078;21.014;2023-07-09T09:57:21;170652.94;;;26.14;37.64
45255;BME280;30989;52.078;21.014;2023-07-09T09:59:47;170651.59;;;26.14;38.55
45255;BME280;30989;52.078;21.014;2023-07-09T10:02:19;170640.78;;;26.10;38.24
45255;BME280;30989;52.078;21.014;2023-07-09T10:04:45;170625.91;;;26.04;37.92
45255;BME280;30989;52.078;21.014;2023-07-09T10:09:55;170623.22;;;26.03;38.55
45255;BME280;30989;52.078;21.014;2023-07-09T10:17:56;170679.94;;;26.24;37.96
45255;BME280;30989;52.078;21.014;2023-07-09T10:20:36;170690.75;;;26.28;37.45
45255;BME280;30989;52.078;21.014;2023-07-09T10:23:24;170721.88;;;26.40;35.54
45255;BME280;30989;52.078;21.014;2023-07-09T10:26:03;170719.19;;;26.39;36.07
45255;BME280;30989;52.078;21.014;2023-07-09T10:28:55;170725.94;;;26.42;35.26
45255;BME280;30989;52.078;21.014;2023-07-09T10:39:46;170871.88;;;26.96;36.29
45255;BME280;30989;52.078;21.014;2023-07-09T10:42:34;170919.22;;;27.14;34.79
45255;BME280;30989;52.078;21.014;2023-07-09T10:45:15;170946.25;;;27.24;35.21
45255;BME280;30989;52.078;21.014;2023-07-09T10:47:48;170978.69;;;27.37;33.14
45255;BME280;30989;52.078;21.014;2023-07-09T10:50:39;170992.19;;;27.42;33.71
45255;BME280;30989;52.078;21.014;2023-07-09T10:53:22;170993.56;;;27.42;33.01
45255;BME280;30989;52.078;21.014;2023-07-09T10:55:55;171051.72;;;27.64;34.15
45255;BME280;30989;52.078;21.014;2023-07-09T11:00:52;171140.94;;;27.98;33.04
45255;BME280;30989;52.078;21.014;2023-07-09T11:05:54;171219.41;;;28.27;33.16
45255;BME280;30989;52.078;21.014;2023-07-09T11:08:34;171247.81;;;28.38;32.53
45255;BME280;30989;52.078;21.014;2023-07-09T11:11:04;171251.88;;;28.39;32.87
45255;BME280;30989;52.078;21.014;2023-07-09T11:13:40;171255.94;;;28.41;32.56
45255;BME280;30989;52.078;21.014;2023-07-09T11:16:11;171333.00;;;28.70;32.11
45255;BME280;30989;52.078;21.014;2023-07-09T11:18:39;171397.97;;;28.94;31.62
45255;BME280;30989;52.078;21.014;2023-07-09T11:21:25;171443.97;;;29.11;30.48
45255;BME280;30989;52.078;21.014;2023-07-09T11:23:54;171473.72;;;29.23;30.56
45255;BME280;30989;52.078;21.014;2023-07-09T11:29:06;171508.88;;;29.36;30.84
45255;BME280;30989;52.078;21.014;2023-07-09T11:31:39;171603.66;;;29.71;31.01
45255;BME280;30989;52.078;21.014;2023-07-09T11:42:01;171978.63;;;31.12;28.92
45255;BME280;30989;52.078;21.014;2023-07-09T11:44:32;172118.19;;;31.64;28.46
45255;BME280;30989;52.078;21.014;2023-07-09T11:47:13;172211.66;;;31.99;28.04
45255;BME280;30989;52.078;21.014;2023-07-09T11:49:58;172349.88;;;32.51;26.41
45255;BME280;30989;52.078;21.014;2023-07-09T11:52:34;172482.66;;;33.01;27.32
45255;BME280;30989;52.078;21.014;2023-07-09T11:57:49;172795.78;;;34.18;26.19
45255;BME280;30989;52.078;21.014;2023-07-09T12:00:17;172901.56;;;34.58;26.05
45255;BME280;30989;52.078;21.014;2023-07-09T12:02:43;173050.75;;;35.14;25.82
45255;BME280;30989;52.078;21.014;2023-07-09T12:05:09;173255.59;;;35.91;23.11
45255;BME280;30989;52.078;21.014;2023-07-09T12:07:35;173296.28;;;36.06;24.48
45255;BME280;30989;52.078;21.014;2023-07-09T12:10:03;173221.66;;;35.78;21.97
45255;BME280;30989;52.078;21.014;2023-07-09T12:12:41;173091.44;;;35.29;22.93
45255;BME280;30989;52.078;21.014;2023-07-09T12:15:33;173064.31;;;35.19;23.34
45255;BME280;30989;52.078;21.014;2023-07-09T12:18:02;173042.63;;;35.11;23.30
45255;BME280;30989;52.078;21.014;2023-07-09T12:20:31;173080.56;;;35.25;23.17
45255;BME280;30989;52.078;21.014;2023-07-09T12:22:57;173107.75;;;35.35;22.48
45255;BME280;30989;52.078;21.014;2023-07-09T12:25:24;173140.28;;;35.47;23.65
45255;BME280;30989;52.078;21.014;2023-07-09T12:27:51;173212.16;;;35.74;23.15
45255;BME280;30989;52.078;21.014;2023-07-09T12:30:18;173239.34;;;35.84;22.45
45255;BME280;30989;52.078;21.014;2023-07-09T12:32:45;173262.38;;;35.93;22.19
45255;BME280;30989;52.078;21.014;2023-07-09T12:35:15;173286.81;;;36.02;21.89
45255;BME280;30989;52.078;21.014;2023-07-09T12:37:43;173282.72;;;36.01;22.23
45255;BME280;30989;52.078;21.014;2023-07-09T12:40:20;173288.16;;;36.03;21.34
45255;BME280;30989;52.078;21.014;2023-07-09T12:42:46;173255.59;;;35.91;21.56
45255;BME280;30989;52.078;21.014;2023-07-09T12:45:17;173292.22;;;36.04;21.70
45255;BME280;30989;52.078;21.014;2023-07-09T12:47:45;173303.06;;;36.08;20.77
45255;BME280;30989;52.078;21.014;2023-07-09T12:50:26;173307.16;;;36.10;21.10
45255;BME280;30989;52.078;21.014;2023-07-09T12:52:55;173320.72;;;36.15;21.71
45255;BME280;30989;52.078;21.014;2023-07-09T12:55:23;173338.34;;;36.22;21.46
45255;BME280;30989;52.078;21.014;2023-07-09T12:57:48;173362.81;;;36.31;21.60
45255;BME280;30989;52.078;21.014;2023-07-09T13:00:18;173315.28;;;36.13;20.57
45255;BME280;30989;52.078;21.014;2023-07-09T13:02:44;173246.13;;;35.87;20.83
45255;BME280;30989;52.078;21.014;2023-07-09T13:05:21;173113.16;;;35.37;21.11
45255;BME280;30989;52.078;21.014;2023-07-09T13:07:50;173037.19;;;35.09;21.13
45255;BME280;30989;52.078;21.014;2023-07-09T13:10:23;172984.31;;;34.89;20.87
45255;BME280;30989;52.078;21.014;2023-07-09T13:12:52;172904.28;;;34.59;21.78
45255;BME280;30989;52.078;21.014;2023-07-09T13:15:38;172969.41;;;34.83;21.92
45255;BME280;30989;52.078;21.014;2023-07-09T13:18:07;172991.09;;;34.92;21.60
45255;BME280;30989;52.078;21.014;2023-07-09T13:20:37;173061.59;;;35.18;22.18
45255;BME280;30989;52.078;21.014;2023-07-09T13:23:09;173088.72;;;35.28;21.91
45255;BME280;30989;52.078;21.014;2023-07-09T13:25:35;173122.66;;;35.41;22.37
45255;BME280;30989;52.078;21.014;2023-07-09T13:28:01;173107.75;;;35.35;21.58
45255;BME280;30989;52.078;21.014;2023-07-09T13:30:26;173076.50;;;35.23;21.13
45255;BME280;30989;52.078;21.014;2023-07-09T13:32:52;173081.94;;;35.26;21.20